Time;durP1;ratioP1;P1;durP2;ratioP2;P2;SDS_P1;SDS_P2;PMS_P1;PMS_P2;Temp;Humidity;BMP_temperature;BMP_pressure;BME280_temperature;BME280_humidity;BME280_pressure;Samples;Min_cycle;Max_cycle;Signal;HPM_P1;HPM_P2
2024/03/01 00:01:06;;;;;;;;;170.00;134.75;;;;;9.05;84.66;100007.84;5066654;28;45469;-62
2024/03/01 00:03:32;;;;;;;;;3.00;3.00;;;;;9.10;84.93;100018.97;5064758;28;45564;-61
2024/03/01 00:05:57;;;;;;;;;3.00;2.00;;;;;9.11;84.57;100024.16;5067388;27;46895;-61
2024/03/01 00:08:22;;;;;;;;;2.00;2.00;;;;;9.12;84.22;100028.47;5067915;27;58809;-62
2024/03/01 00:10:48;;;;;;;;;4.75;3.25;;;;;9.15;84.46;100031.91;5081928;27;69252;-61
2024/03/01 00:13:13;;;;;;;;;4.00;4.00;;;;;9.17;84.60;100035.31;5077488;27;45627;-62
2024/03/01 00:15:38;;;;;;;;;6.75;3.75;;;;;9.18;84.57;100037.88;5066049;28;48602;-61
2024/03/01 00:18:04;;;;;;;;;5.00;3.00;;;;;9.18;84.32;100042.25;5071166;28;60106;-62
2024/03/01 00:20:29;;;;;;;;;3.50;3.25;;;;;9.18;84.16;100055.28;5072236;27;45436;-62
2024/03/01 00:22:55;;;;;;;;;5.25;3.00;;;;;9.16;83.83;100050.13;5064984;27;45419;-62
2024/03/01 00:25:20;;;;;;;;;5.50;3.00;;;;;9.16;83.60;100055.34;5078357;27;46072;-62
2024/03/01 00:27:46;;;;;;;;;3.00;3.00;;;;;9.18;83.38;100056.13;5074877;27;45504;-62
2024/03/01 00:30:11;;;;;;;;;3.75;3.75;;;;;9.18;83.11;100055.28;5068490;27;63222;-62
2024/03/01 00:32:37;;;;;;;;;3.25;3.00;;;;;9.16;83.02;100052.72;5074590;27;45452;-62
2024/03/01 00:35:03;;;;;;;;;3.25;3.25;;;;;9.16;82.60;100063.16;5066960;28;45316;-62
2024/03/01 00:37:28;;;;;;;;;4.00;3.00;;;;;9.16;82.46;100065.78;5066854;28;45228;-62
2024/03/01 00:39:53;;;;;;;;;5.50;3.25;;;;;9.14;82.63;100064.97;5061195;28;45216;-63
2024/03/01 00:42:18;;;;;;;;;3.00;3.00;;;;;9.12;82.58;100069.41;5064480;27;71713;-63
2024/03/01 00:44:44;;;;;;;;;5.00;3.00;;;;;9.10;81.93;100074.66;5061735;28;56713;-63
2024/03/01 00:47:09;;;;;;;;;5.00;3.00;;;;;9.09;82.08;100066.88;5060881;27;61594;-63
2024/03/01 00:49:34;;;;;;;;;6.00;3.00;;;;;9.07;82.11;100069.53;5069523;28;57050;-62
2024/03/01 00:52:00;;;;;;;;;2.00;2.00;;;;;9.03;82.01;100073.16;5067491;28;45344;-62
2024/03/01 00:54:25;;;;;;;;;3.00;2.00;;;;;8.99;81.66;100075.91;5073858;28;75341;-62
2024/03/01 00:56:51;;;;;;;;;1.75;1.75;;;;;8.95;82.07;100062.09;5067154;27;45425;-62
2024/03/01 00:59:21;;;;;;;;;4.25;1.50;;;;;8.85;81.43;100061.53;5070219;27;45259;-62
2024/03/01 01:01:46;;;;;;;;;26.75;20.75;;;;;8.80;81.68;100059.94;5070592;27;45477;-62
2024/03/01 01:04:11;;;;;;;;;3.75;2.75;;;;;8.74;81.94;100066.22;5069787;28;47461;-62
2024/03/01 01:06:37;;;;;;;;;2.50;1.00;;;;;8.68;82.15;100072.47;5063948;27;45517;-60
2024/03/01 01:09:02;;;;;;;;;3.00;0.75;;;;;8.61;81.91;100070.94;5068506;27;56072;-61
2024/03/01 01:11:28;;;;;;;;;1.25;1.00;;;;;8.54;82.11;100062.44;5064350;27;45428;-62
2024/03/01 01:13:56;;;;;;;;;1.00;1.00;;;;;8.49;81.83;100059.09;5073785;28;46136;-62
2024/03/01 01:16:22;;;;;;;;;0.00;0.00;;;;;8.44;82.02;100068.81;5065235;28;45466;-62
2024/03/01 01:18:47;;;;;;;;;4.50;1.00;;;;;8.38;81.60;100068.13;5071243;27;45450;-63
2024/03/01 01:21:12;;;;;;;;;1.25;0.75;;;;;8.33;81.82;100069.09;5060213;28;45575;-62
2024/03/01 01:23:38;;;;;;;;;0.75;0.50;;;;;8.29;81.95;100075.31;5075655;28;47318;-64
2024/03/01 01:26:03;;;;;;;;;0.50;0.00;;;;;8.22;81.76;100071.16;5076175;28;52597;-63
2024/03/01 01:28:28;;;;;;;;;0.00;0.00;;;;;8.18;81.88;100087.78;5066494;28;45417;-61
2024/03/01 01:30:54;;;;;;;;;0.00;0.00;;;;;8.15;81.76;100083.50;5058854;28;72343;-62
2024/03/01 01:33:19;;;;;;;;;0.00;0.00;;;;;8.13;81.99;100087.91;5070841;27;46105;-61
2024/03/01 01:35:45;;;;;;;;;2.25;1.00;;;;;8.12;82.00;100093.16;5071137;28;45503;-63
2024/03/01 01:38:10;;;;;;;;;3.75;0.50;;;;;8.09;82.32;100094.09;5062280;28;45373;-62
2024/03/01 01:40:35;;;;;;;;;1.25;0.00;;;;;8.12;82.23;100101.81;5073476;28;45487;-62
2024/03/01 01:43:04;;;;;;;;;0.25;0.25;;;;;8.14;82.13;100107.00;5059615;28;45366;-63
2024/03/01 01:45:29;;;;;;;;;0.00;0.00;;;;;8.16;82.31;100097.38;5072284;28;45319;-62
2024/03/01 01:47:55;;;;;;;;;1.00;1.00;;;;;8.23;82.24;100104.13;5067821;28;45756;-62
2024/03/01 01:50:20;;;;;;;;;0.50;0.00;;;;;8.28;82.08;100099.66;5072957;28;69935;-62
2024/03/01 01:52:46;;;;;;;;;0.00;0.00;;;;;8.33;82.32;100087.34;5071506;28;51684;-62
2024/03/01 01:55:11;;;;;;;;;0.25;0.00;;;;;8.37;82.09;100090.72;5063330;27;71196;-62
2024/03/01 01:57:40;;;;;;;;;0.00;0.00;;;;;8.39;81.70;100077.63;5068658;28;67886;-62
2024/03/01 02:00:07;;;;;;;;;1.00;0.00;;;;;8.41;81.43;100083.66;5070629;28;45532;-62
2024/03/01 02:02:33;;;;;;;;;0.00;0.00;;;;;8.41;81.21;100070.63;5069353;28;45450;-63
2024/03/01 02:04:59;;;;;;;;;1.25;0.00;;;;;8.40;81.36;100072.38;5076037;27;45258;-63
2024/03/01 02:07:25;;;;;;;;;1.50;0.00;;;;;8.41;81.28;100074.09;5070667;27;45537;-63
2024/03/01 02:09:51;;;;;;;;;1.00;1.00;;;;;8.44;81.35;100073.19;5072705;28;63266;-62
2024/03/01 02:12:17;;;;;;;;;0.75;0.00;;;;;8.45;81.51;100062.72;5070936;28;47223;-63
2024/03/01 02:14:43;;;;;;;;;1.25;0.00;;;;;8.50;81.11;100063.44;5069185;27;45468;-61
2024/03/01 02:17:08;;;;;;;;;1.75;0.00;;;;;8.52;81.20;100050.34;5065432;28;46480;-62
2024/03/01 02:19:34;;;;;;;;;1.00;0.00;;;;;8.50;80.85;100050.41;5063151;27;70718;-62
2024/03/01 02:22:12;;;;;;;;;2.50;1.00;;;;;8.47;80.89;100045.25;5059676;28;74396;-62
2024/03/01 02:24:37;;;;;;;;;1.00;1.00;;;;;8.43;81.03;100041.06;5073468;28;45542;-62
2024/03/01 02:27:03;;;;;;;;;0.00;0.00;;;;;8.43;81.18;100038.44;5073859;28;47469;-62
2024/03/01 02:29:28;;;;;;;;;2.00;0.00;;;;;8.40;81.03;100033.28;5064227;27;45491;-62
2024/03/01 02:31:55;;;;;;;;;0.50;0.00;;;;;8.36;81.33;100022.09;5061192;28;74595;-62
2024/03/01 02:34:21;;;;;;;;;0.00;0.00;;;;;8.34;81.20;100023.03;5068839;27;45218;-62
2024/03/01 02:36:46;;;;;;;;;0.00;0.00;;;;;8.21;81.42;99999.06;5066873;27;45289;-62
2024/03/01 02:39:17;;;;;;;;;0.00;0.00;;;;;8.26;81.62;100007.59;5071380;27;63385;-63
2024/03/01 02:41:45;;;;;;;;;2.00;0.25;;;;;8.23;81.83;99999.88;5060347;28;45335;-62
2024/03/01 02:44:10;;;;;;;;;3.00;1.00;;;;;8.21;81.77;100003.44;5074043;28;45408;-62
2024/03/01 02:46:35;;;;;;;;;4.75;0.50;;;;;8.15;81.93;99996.66;5062966;27;62789;-62
2024/03/01 02:49:02;;;;;;;;;1.25;1.00;;;;;8.14;81.76;100003.63;5064142;28;68716;-62
2024/03/01 02:51:27;;;;;;;;;0.25;0.25;;;;;8.12;82.21;99987.16;5068103;28;46164;-62
2024/03/01 02:53:53;;;;;;;;;1.25;0.75;;;;;8.07;82.27;99989.03;5072982;28;45468;-62
2024/03/01 02:56:18;;;;;;;;;0.50;0.25;;;;;8.01;82.25;99976.19;5072213;28;63181;-62
2024/03/01 02:58:44;;;;;;;;;1.00;1.00;;;;;8.04;82.30;99980.44;5063150;28;45500;-62
2024/03/01 03:01:09;;;;;;;;;3.25;0.00;;;;;8.01;82.28;99975.34;5069110;28;55250;-63
2024/03/01 03:03:34;;;;;;;;;2.25;1.00;;;;;7.98;82.22;99979.75;5061034;27;68872;-62
2024/03/01 03:06:00;;;;;;;;;0.50;0.00;;;;;7.96;82.63;99978.91;5070827;28;45378;-61
2024/03/01 03:08:25;;;;;;;;;1.75;0.25;;;;;7.95;82.56;99981.56;5057420;28;73275;-61
2024/03/01 03:10:50;;;;;;;;;2.75;1.00;;;;;7.92;82.35;99985.13;5065375;27;74573;-62
2024/03/01 03:13:15;;;;;;;;;1.00;0.00;;;;;7.89;82.62;99982.59;5072817;27;64962;-61
2024/03/01 03:15:41;;;;;;;;;1.25;1.00;;;;;7.88;82.48;99986.13;5066249;28;51264;-61
2024/03/01 03:18:06;;;;;;;;;2.00;0.00;;;;;7.88;82.64;99987.84;5070027;27;45522;-62
2024/03/01 03:20:35;;;;;;;;;1.00;1.00;;;;;7.85;82.41;99988.81;5064698;28;71879;-61
2024/03/01 03:23:02;;;;;;;;;2.00;0.00;;;;;7.84;82.62;99991.44;5066034;28;45268;-62
2024/03/01 03:25:28;;;;;;;;;0.25;0.25;;;;;7.81;82.66;99997.59;5078090;27;45710;-62
2024/03/01 03:27:53;;;;;;;;;0.25;0.00;;;;;7.78;82.69;100000.28;5074973;27;47248;-62
2024/03/01 03:30:19;;;;;;;;;2.00;2.00;;;;;7.77;82.68;99996.84;5067978;27;73683;-62
2024/03/01 03:32:45;;;;;;;;;2.00;0.75;;;;;7.75;82.71;99997.75;5073291;27;45496;-62
2024/03/01 03:35:10;;;;;;;;;3.00;0.00;;;;;7.73;82.91;99994.34;5075453;28;45379;-61
2024/03/01 03:37:35;;;;;;;;;4.00;2.00;;;;;7.73;82.93;99986.53;5061664;27;45458;-62
2024/03/01 03:40:13;;;;;;;;;0.00;0.00;;;;;7.71;83.10;99976.16;5066091;27;71244;-63
2024/03/01 03:42:38;;;;;;;;;1.00;1.00;;;;;7.69;83.32;99984.91;5071826;27;45359;-61
2024/03/01 03:45:06;;;;;;;;;0.00;0.00;;;;;7.70;82.91;99990.09;5075456;27;45342;-62
2024/03/01 03:47:39;;;;;;;;;1.50;0.00;;;;;7.65;83.30;99976.34;5066249;27;45462;-62
2024/03/01 03:50:07;;;;;;;;;2.50;0.25;;;;;7.68;83.09;99991.84;5066192;27;45664;-62
2024/03/01 03:52:34;;;;;;;;;0.00;0.00;;;;;7.68;83.13;99985.81;5077531;27;45420;-62
2024/03/01 03:54:59;;;;;;;;;3.00;1.00;;;;;7.67;83.45;100005.78;5077765;27;45407;-62
2024/03/01 03:57:25;;;;;;;;;0.00;0.00;;;;;7.69;83.33;100010.97;5069364;27;45364;-62
2024/03/01 03:59:50;;;;;;;;;2.00;0.75;;;;;7.66;83.15;100001.47;5067603;27;74782;-62
2024/03/01 04:02:15;;;;;;;;;2.00;0.50;;;;;7.65;83.30;99998.91;5068073;27;72181;-62
2024/03/01 04:04:41;;;;;;;;;2.00;0.00;;;;;7.65;83.38;100004.09;5069501;27;45418;-65
2024/03/01 04:07:06;;;;;;;;;0.00;0.00;;;;;7.62;82.94;100006.81;5066469;28;73202;-62
2024/03/01 04:09:31;;;;;;;;;1.00;1.00;;;;;7.57;83.35;100004.31;5066897;28;68500;-62
2024/03/01 04:11:59;;;;;;;;;0.00;0.00;;;;;7.53;83.08;99993.13;5069863;28;45352;-62
2024/03/01 04:14:24;;;;;;;;;2.00;0.75;;;;;7.53;83.03;100007.91;5077246;27;45705;-63
2024/03/01 04:16:49;;;;;;;;;0.00;0.00;;;;;7.50;83.00;100006.22;5073757;27;53950;-62
2024/03/01 04:19:14;;;;;;;;;0.75;0.00;;;;;7.49;82.96;100001.06;5071589;27;75628;-62
2024/03/01 04:21:42;;;;;;;;;0.50;0.00;;;;;7.46;83.10;99999.41;5062031;27;72276;-62
2024/03/01 04:24:08;;;;;;;;;1.00;0.00;;;;;7.44;82.73;99995.09;5078157;27;45494;-62
2024/03/01 04:26:35;;;;;;;;;1.25;0.00;;;;;7.43;82.89;99999.47;5067127;28;45316;-62
2024/03/01 04:29:00;;;;;;;;;0.75;0.00;;;;;7.41;82.81;100001.25;5049142;27;47782;-62
2024/03/01 04:31:25;;;;;;;;;2.00;0.00;;;;;7.35;82.78;99991.03;5071288;28;45454;-63
2024/03/01 04:33:51;;;;;;;;;1.25;1.00;;;;;7.38;82.76;99999.59;5070545;27;45714;-62
2024/03/01 04:36:16;;;;;;;;;0.50;0.00;;;;;7.37;82.74;100005.69;5054713;28;45693;-63
2024/03/01 04:38:42;;;;;;;;;2.50;0.00;;;;;7.36;82.58;100003.13;5074336;27;46067;-63
2024/03/01 04:41:15;;;;;;;;;1.25;0.00;;;;;7.35;82.28;100011.84;5063079;28;67022;-63
2024/03/01 04:43:40;;;;;;;;;2.00;0.50;;;;;7.31;82.29;100002.38;5073432;27;45507;-63
2024/03/01 04:46:06;;;;;;;;;3.00;0.25;;;;;7.32;82.56;100004.94;5064996;27;69006;-62
2024/03/01 04:48:31;;;;;;;;;1.75;0.75;;;;;7.31;82.23;99999.78;5072863;27;46098;-62
2024/03/01 04:50:56;;;;;;;;;2.50;0.50;;;;;7.26;82.35;99986.91;5076144;28;55141;-62
2024/03/01 04:53:21;;;;;;;;;0.00;0.00;;;;;7.26;82.36;99991.22;5071741;27;69425;-62
2024/03/01 04:55:47;;;;;;;;;3.25;1.00;;;;;7.26;82.65;99992.09;5074508;28;70899;-61
2024/03/01 04:58:12;;;;;;;;;1.00;0.00;;;;;7.26;82.48;99994.72;5072658;27;47119;-62
2024/03/01 05:00:37;;;;;;;;;0.00;0.00;;;;;7.25;82.44;99994.75;5073498;27;57798;-62
2024/03/01 05:03:06;;;;;;;;;2.75;0.00;;;;;7.25;82.48;99990.38;5064561;28;67146;-61
2024/03/01 05:05:32;;;;;;;;;2.25;1.00;;;;;7.25;82.54;99994.75;5070238;27;45461;-61
2024/03/01 05:07:57;;;;;;;;;0.25;0.25;;;;;7.27;82.70;99996.41;5070575;27;46284;-62
2024/03/01 05:10:23;;;;;;;;;1.00;0.00;;;;;7.27;82.73;99990.34;5071730;27;70751;-62
2024/03/01 05:12:51;;;;;;;;;0.00;0.00;;;;;7.30;82.58;99993.72;5078550;27;45811;-61
2024/03/01 05:15:16;;;;;;;;;1.50;1.00;;;;;7.30;82.40;99991.13;5072509;27;45718;-62
2024/03/01 05:17:45;;;;;;;;;3.00;1.00;;;;;7.30;82.43;99979.88;5067257;27;46107;-62
2024/03/01 05:20:11;;;;;;;;;0.75;0.75;;;;;7.30;82.20;99970.31;5072665;27;45525;-63
2024/03/01 05:22:38;;;;;;;;;2.00;1.75;;;;;7.29;82.08;99975.53;5069460;27;45286;-62
2024/03/01 05:25:14;;;;;;;;;0.00;0.00;;;;;7.28;81.95;99974.69;5065903;27;46305;-61
2024/03/01 05:27:49;;;;;;;;;2.00;1.00;;;;;7.26;82.13;99966.09;5065021;28;46545;-62
2024/03/01 05:30:19;;;;;;;;;0.00;0.00;;;;;7.27;81.91;99965.16;5063453;28;45409;-62
2024/03/01 05:32:46;;;;;;;;;4.00;1.00;;;;;7.27;82.10;99961.72;5065434;28;45371;-62
2024/03/01 05:35:17;;;;;;;;;5.00;1.00;;;;;7.27;81.88;99946.97;5070695;28;45465;-62
2024/03/01 05:37:46;;;;;;;;;2.25;1.00;;;;;7.25;81.97;99938.34;5083508;27;46640;-63
2024/03/01 05:40:14;;;;;;;;;1.00;1.00;;;;;7.28;81.62;99932.19;5072135;27;45490;-63
2024/03/01 05:42:43;;;;;;;;;2.50;1.25;;;;;7.27;81.86;99939.16;5071800;27;45374;-63
2024/03/01 05:45:10;;;;;;;;;0.75;0.75;;;;;7.26;81.92;99936.59;5065793;27;45240;-62
2024/03/01 05:47:40;;;;;;;;;1.25;1.25;;;;;7.26;81.98;99936.59;5063132;27;45430;-62
2024/03/01 05:50:07;;;;;;;;;1.50;0.25;;;;;7.22;81.90;99928.00;5067253;27;45425;-62
2024/03/01 05:52:34;;;;;;;;;1.25;0.00;;;;;7.19;82.23;99928.09;5077312;27;45500;-62
2024/03/01 05:54:59;;;;;;;;;2.00;1.00;;;;;7.18;82.04;99923.78;5064567;27;45237;-63
2024/03/01 05:57:29;;;;;;;;;4.25;1.00;;;;;7.16;81.97;99920.38;5064912;28;45452;-62
2024/03/01 05:59:55;;;;;;;;;0.75;0.00;;;;;7.13;82.03;99923.88;5086550;27;45555;-63
2024/03/01 06:02:22;;;;;;;;;0.25;0.25;;;;;7.11;82.13;99912.66;5061362;27;45395;-62
2024/03/01 06:04:47;;;;;;;;;0.00;0.00;;;;;7.10;82.10;99899.69;5065739;28;45524;-61
2024/03/01 06:07:13;;;;;;;;;4.50;1.00;;;;;7.09;82.37;99892.81;5062274;28;46068;-63
2024/03/01 06:09:38;;;;;;;;;2.00;1.00;;;;;7.09;82.44;99885.84;5077301;27;60017;-63
2024/03/01 06:12:04;;;;;;;;;6.50;1.75;;;;;7.06;82.22;99882.47;5075198;27;69153;-63
2024/03/01 06:14:29;;;;;;;;;2.25;1.00;;;;;7.05;82.43;99892.03;5069361;27;45420;-63
2024/03/01 06:16:54;;;;;;;;;0.50;0.50;;;;;7.02;82.50;99879.94;5067475;27;46998;-62
2024/03/01 06:19:20;;;;;;;;;0.75;0.75;;;;;7.02;82.61;99879.09;5061780;28;45297;-62
2024/03/01 06:21:45;;;;;;;;;2.75;1.00;;;;;6.99;82.74;99869.66;5062570;27;55347;-63
2024/03/01 06:24:10;;;;;;;;;3.50;1.00;;;;;6.98;82.78;99867.06;5069756;27;45677;-63
2024/03/01 06:26:37;;;;;;;;;4.00;1.00;;;;;6.96;82.92;99853.25;5065394;27;45508;-61
2024/03/01 06:29:02;;;;;;;;;1.50;1.00;;;;;6.94;82.91;99855.91;5072774;28;45528;-62
2024/03/01 06:31:27;;;;;;;;;1.75;1.50;;;;;6.92;82.83;99865.47;5067036;27;45264;-62
2024/03/01 06:33:53;;;;;;;;;1.25;1.25;;;;;6.91;82.79;99852.53;5066032;28;62382;-62
2024/03/01 06:36:18;;;;;;;;;1.75;1.00;;;;;6.87;83.07;99858.69;5064458;27;67280;-62
2024/03/01 06:38:43;;;;;;;;;2.50;1.00;;;;;6.84;83.03;99846.63;5073547;28;69681;-62
2024/03/01 06:41:09;;;;;;;;;3.00;1.00;;;;;6.81;82.98;99846.69;5068333;28;69292;-62
2024/03/01 06:43:34;;;;;;;;;3.00;1.75;;;;;6.81;82.99;99852.75;5059527;28;45434;-62
2024/03/01 06:46:03;;;;;;;;;5.25;1.00;;;;;6.81;83.14;99849.28;5065200;28;64872;-62
2024/03/01 06:48:28;;;;;;;;;4.25;2.00;;;;;6.76;83.21;99833.78;5067545;28;45576;-62
2024/03/01 06:50:54;;;;;;;;;9.50;3.00;;;;;6.77;83.27;99824.28;5069641;28;45188;-62
2024/03/01 06:53:19;;;;;;;;;2.25;0.75;;;;;6.78;83.37;99837.25;5064554;28;45450;-62
2024/03/01 06:55:44;;;;;;;;;1.25;1.00;;;;;6.77;83.53;99827.72;5069880;28;74037;-62
2024/03/01 06:58:10;;;;;;;;;3.25;2.00;;;;;6.76;83.45;99831.19;5063953;28;60804;-65
2024/03/01 07:00:35;;;;;;;;;3.50;2.50;;;;;6.76;83.32;99828.59;5074681;28;45351;-63
2024/03/01 07:03:02;;;;;;;;;6.00;3.00;;;;;6.75;83.44;99815.66;5061731;28;45332;-62
2024/03/01 07:05:29;;;;;;;;;27.50;22.50;;;;;6.79;83.38;99823.31;5067693;28;46138;-62
2024/03/01 07:07:55;;;;;;;;;12.75;9.25;;;;;6.81;83.59;99820.69;5073338;28;45445;-62
2024/03/01 07:10:21;;;;;;;;;5.75;2.00;;;;;6.81;83.41;99828.50;5067712;28;45343;-62
2024/03/01 07:12:46;;;;;;;;;3.25;2.50;;;;;6.82;83.65;99823.25;5062934;28;45495;-62
2024/03/01 07:15:12;;;;;;;;;4.75;2.75;;;;;6.86;83.51;99815.38;5067755;28;45374;-62
2024/03/01 07:17:37;;;;;;;;;3.25;2.00;;;;;6.86;83.64;99794.56;5073099;28;45791;-60
2024/03/01 07:20:03;;;;;;;;;4.25;2.50;;;;;6.91;83.57;99803.97;5053175;28;64979;-60
2024/03/01 07:22:28;;;;;;;;;4.25;3.00;;;;;6.94;83.47;99790.88;5064503;28;45255;-61
2024/03/01 07:24:53;;;;;;;;;3.00;3.00;;;;;6.95;83.63;99782.16;5071175;28;62046;-63
2024/03/01 07:27:19;;;;;;;;;2.75;1.00;;;;;7.03;83.46;99774.16;5075120;28;45373;-62
2024/03/01 07:29:44;;;;;;;;;2.75;2.75;;;;;7.13;83.49;99774.75;5063048;28;45339;-62
2024/03/01 07:32:09;;;;;;;;;3.00;2.00;;;;;7.22;83.23;99759.72;5061386;28;72125;-66
2024/03/01 07:34:35;;;;;;;;;3.00;2.00;;;;;7.32;83.05;99742.09;5068944;28;72988;-60
2024/03/01 07:37:00;;;;;;;;;4.00;2.00;;;;;7.43;82.74;99752.19;5076739;28;48546;-66
2024/03/01 07:39:26;;;;;;;;;5.50;2.25;;;;;7.53;82.41;99734.53;5072543;28;45386;-61
2024/03/01 07:41:52;;;;;;;;;6.25;2.00;;;;;7.62;82.01;99725.59;5074189;28;45316;-61
2024/03/01 07:44:17;;;;;;;;;3.00;2.00;;;;;7.71;81.58;99710.53;5071398;28;75710;-61
2024/03/01 07:46:42;;;;;;;;;6.00;2.00;;;;;7.82;81.17;99722.34;5066589;28;45489;-64
2024/03/01 07:49:08;;;;;;;;;2.25;1.25;;;;;7.94;80.49;99715.00;5073194;28;48106;-60
2024/03/01 07:51:33;;;;;;;;;2.00;1.00;;;;;8.04;80.20;99712.94;5075788;28;72184;-60
2024/03/01 07:53:59;;;;;;;;;1.50;1.50;;;;;8.15;79.77;99715.19;5077204;28;46231;-60
2024/03/01 07:56:24;;;;;;;;;1.50;1.00;;;;;8.27;79.55;99700.88;5071323;28;71901;-61
2024/03/01 07:59:04;;;;;;;;;3.25;1.00;;;;;8.39;78.90;99697.84;5081355;27;45752;-60
2024/03/01 08:01:30;;;;;;;;;7.50;3.25;;;;;8.51;78.50;99701.81;5066974;28;46307;-61
2024/03/01 08:03:55;;;;;;;;;3.00;1.00;;;;;8.62;77.78;99684.03;5054567;28;46045;-61
2024/03/01 08:06:21;;;;;;;;;3.00;1.00;;;;;8.70;77.25;99682.00;5072377;28;45745;-60
2024/03/01 08:08:47;;;;;;;;;6.75;2.00;;;;;8.80;77.30;99682.53;5069760;28;51615;-60
2024/03/01 08:11:31;;;;;;;;;2.00;1.00;;;;;8.86;76.68;99669.25;5067234;28;67177;-61
2024/03/01 08:13:59;;;;;;;;;3.00;1.00;;;;;8.90;75.71;99663.00;5062915;28;47146;-59
2024/03/01 08:16:25;;;;;;;;;2.00;1.00;;;;;8.95;75.52;99659.41;5046630;28;45594;-60
2024/03/01 08:18:51;;;;;;;;;2.75;0.25;;;;;8.97;75.15;99666.25;5060915;28;45896;-66
2024/03/01 08:21:17;;;;;;;;;2.00;1.00;;;;;8.98;74.87;99651.44;5064126;28;45751;-60
2024/03/01 08:23:43;;;;;;;;;2.50;0.75;;;;;8.99;75.03;99655.75;5069130;28;46260;-66
2024/03/01 08:26:29;;;;;;;;;3.00;1.00;;;;;9.04;74.71;99653.81;5069260;28;45755;-61
2024/03/01 08:28:56;;;;;;;;;1.50;1.50;;;;;9.09;74.56;99651.88;5062435;28;45227;-56
2024/03/01 08:31:29;;;;;;;;;6.75;1.00;;;;;9.18;74.58;99653.28;5060875;28;45457;-67
2024/03/01 08:34:05;;;;;;;;;2.00;1.00;;;;;9.28;74.13;99639.81;5052017;28;47627;-71
2024/03/01 08:36:31;;;;;;;;;3.50;1.00;;;;;9.37;73.59;99648.22;5061987;28;45513;-66
2024/03/01 08:38:59;;;;;;;;;2.50;1.00;;;;;9.46;73.40;99629.56;5080294;27;45511;-65
2024/03/01 08:41:25;;;;;;;;;1.50;1.00;;;;;9.53;73.16;99632.78;5089069;27;45336;-68
2024/03/01 08:43:50;;;;;;;;;3.50;1.75;;;;;9.54;72.78;99614.41;5071620;27;45491;-63
2024/03/01 08:46:24;;;;;;;;;2.50;1.00;;;;;9.55;72.74;99603.06;5067717;28;71603;-63
2024/03/01 08:48:49;;;;;;;;;2.00;0.75;;;;;9.55;72.20;99620.50;5072772;27;45448;-63
2024/03/01 08:51:16;;;;;;;;;0.50;0.00;;;;;9.53;71.95;99601.44;5060943;28;45597;-66
2024/03/01 08:53:57;;;;;;;;;4.50;1.50;;;;;9.55;71.94;99592.63;5062618;28;46637;-68
2024/03/01 08:56:30;;;;;;;;;2.25;0.75;;;;;9.58;71.83;99583.78;5068457;28;45722;-63
2024/03/01 08:58:56;;;;;;;;;1.50;0.25;;;;;9.59;71.35;99586.34;5069415;28;45544;-70
2024/03/01 09:01:33;;;;;;;;;1.75;1.50;;;;;9.61;71.42;99588.91;5078648;28;49156;-68
2024/03/01 09:04:23;;;;;;;;;1.25;1.00;;;;;9.58;71.35;99570.72;5068905;28;47331;-71
2024/03/01 09:06:57;;;;;;;;;4.00;1.00;;;;;9.60;71.15;99569.78;5068559;27;45246;-67
2024/03/01 09:09:23;;;;;;;;;1.50;0.00;;;;;9.60;71.19;99590.66;5075394;28;45386;-72
2024/03/01 09:11:53;;;;;;;;;2.00;2.00;;;;;9.63;71.42;99576.63;5071367;28;70086;-68
2024/03/01 09:14:34;;;;;;;;;4.75;1.00;;;;;9.58;71.03;99579.44;5074774;28;46491;-67
2024/03/01 09:17:00;;;;;;;;;2.50;1.00;;;;;9.60;71.01;99571.56;5069949;27;46037;-69
2024/03/01 09:19:30;;;;;;;;;3.75;2.00;;;;;9.57;71.17;99575.13;5075640;28;45313;-67
2024/03/01 09:21:56;;;;;;;;;9.25;8.00;;;;;9.55;70.93;99569.13;5061848;28;45351;-65
2024/03/01 09:24:22;;;;;;;;;3.50;3.50;;;;;9.56;71.26;99554.28;5064593;28;45370;-66
2024/03/01 09:26:48;;;;;;;;;1.00;1.00;;;;;9.58;70.88;99573.34;5066827;27;45398;-69
2024/03/01 09:29:31;;;;;;;;;1.00;1.00;;;;;9.60;71.25;99555.88;5090096;27;45392;-70
2024/03/01 09:31:57;;;;;;;;;1.00;1.00;;;;;9.63;71.64;99559.22;5078018;27;45833;-67
2024/03/01 09:34:29;;;;;;;;;1.75;1.00;;;;;9.65;71.16;99527.78;5061315;28;45448;-68
2024/03/01 09:36:54;;;;;;;;;3.00;1.00;;;;;9.68;71.42;99532.88;5074790;27;46210;-65
2024/03/01 09:39:20;;;;;;;;;3.00;1.50;;;;;9.67;72.23;99508.53;5084328;27;67879;-68
2024/03/01 09:41:57;;;;;;;;;10.00;3.25;;;;;9.72;72.03;99531.84;5073708;27;45284;-67
2024/03/01 09:44:59;;;;;;;;;2.00;1.00;;;;;9.69;72.10;99514.53;5072732;28;46365;-68
2024/03/01 09:47:34;;;;;;;;;3.50;1.75;;;;;9.66;72.94;99498.13;5065824;27;45362;-65
2024/03/01 09:50:06;;;;;;;;;1.00;1.00;;;;;9.64;72.77;99518.25;5060102;27;45448;-64
2024/03/01 09:52:51;;;;;;;;;5.00;0.25;;;;;9.62;72.74;99513.09;5065983;28;45186;-66
2024/03/01 09:55:34;;;;;;;;;3.00;1.00;;;;;9.60;73.06;99514.94;5063696;28;48706;-71
2024/03/01 09:58:23;;;;;;;;;5.50;0.75;;;;;9.63;73.39;99512.19;5069411;27;45502;-63
2024/03/01 10:01:03;;;;;;;;;5.25;1.25;;;;;9.63;73.45;99513.94;5061188;28;45455;-62
2024/03/01 10:03:42;;;;;;;;;3.00;0.50;;;;;9.61;73.39;99511.38;5073264;28;45518;-64
2024/03/01 10:06:34;;;;;;;;;5.00;2.00;;;;;9.67;73.89;99500.69;5074015;28;45440;-64
2024/03/01 10:09:13;;;;;;;;;3.25;2.75;;;;;9.72;73.65;99497.00;5065255;28;45684;-64
2024/03/01 10:11:53;;;;;;;;;1.00;1.00;;;;;9.74;73.42;99496.06;5078692;28;45454;-65
2024/03/01 10:14:24;;;;;;;;;2.75;2.00;;;;;9.77;73.45;99508.13;5063248;28;45316;-66
2024/03/01 10:17:05;;;;;;;;;2.00;2.00;;;;;9.80;73.25;99500.16;5072818;28;46670;-62
2024/03/01 10:19:46;;;;;;;;;4.25;1.00;;;;;9.83;73.12;99508.72;5075930;28;45337;-65
2024/03/01 10:22:40;;;;;;;;;2.00;1.00;;;;;9.87;73.15;99509.41;5068200;28;45552;-64
2024/03/01 10:25:49;;;;;;;;;2.25;2.25;;;;;9.94;73.26;99500.38;5070084;27;45327;-63
2024/03/01 10:28:39;;;;;;;;;6.75;3.00;;;;;10.00;72.83;99505.34;5084519;27;45525;-65
2024/03/01 10:31:16;;;;;;;;;6.25;2.00;;;;;10.07;72.84;99496.34;5077244;28;45395;-67
2024/03/01 10:34:33;;;;;;;;;2.50;1.50;;;;;10.12;72.90;99503.94;5071090;28;45341;-65
2024/03/01 10:37:09;;;;;;;;;3.50;1.75;;;;;10.16;72.79;99507.28;5052663;27;45549;-65
2024/03/01 10:39:46;;;;;;;;;2.00;1.00;;;;;10.21;73.14;99516.59;5079910;28;45303;-65
2024/03/01 10:42:20;;;;;;;;;8.00;4.25;;;;;10.24;73.22;99521.69;5080779;28;45257;-65
2024/03/01 10:45:18;;;;;;;;;8.75;2.75;;;;;10.26;73.21;99519.03;5081875;28;45378;-63
2024/03/01 10:47:43;;;;;;;;;2.75;1.75;;;;;10.29;73.78;99521.50;5078347;27;45570;-65
2024/03/01 10:50:12;;;;;;;;;2.25;1.00;;;;;10.32;74.18;99521.38;5077528;28;46087;-64
2024/03/01 10:52:45;;;;;;;;;3.75;2.00;;;;;10.35;74.59;99517.78;5068899;28;45796;-67
2024/03/01 10:55:21;;;;;;;;;3.75;2.00;;;;;10.41;74.16;99502.66;5072558;28;45287;-67
2024/03/01 10:57:53;;;;;;;;;2.75;1.75;;;;;10.44;74.50;99506.91;5069886;27;45512;-68
2024/03/01 11:00:19;;;;;;;;;4.50;1.25;;;;;10.49;74.26;99491.00;5086182;27;46342;-61
2024/03/01 11:02:54;;;;;;;;;2.25;1.00;;;;;10.51;74.08;99487.38;5073548;28;45491;-74
2024/03/01 11:05:40;;;;;;;;;5.00;2.00;;;;;10.53;74.32;99490.75;5074047;28;45281;-67
2024/03/01 11:08:18;;;;;;;;;2.75;1.25;;;;;10.59;74.72;99487.88;5091770;27;45705;-78
2024/03/01 11:11:02;;;;;;;;;1.50;1.00;;;;;10.64;74.60;99496.34;5062802;28;46285;-74
2024/03/01 11:13:32;;;;;;;;;2.25;0.75;;;;;10.67;74.77;99492.75;5065226;27;45478;-68
2024/03/01 11:15:59;;;;;;;;;2.50;1.00;;;;;10.70;74.64;99505.69;5062362;28;45442;-67
2024/03/01 11:18:32;;;;;;;;;1.25;1.00;;;;;10.75;74.79;99511.56;5078692;27;45602;-64
2024/03/01 11:21:04;;;;;;;;;2.50;1.00;;;;;10.90;75.25;99517.81;5076550;27;47889;-65
2024/03/01 11:23:47;;;;;;;;;1.25;1.00;;;;;11.00;76.10;99519.06;5069407;28;45582;-68
2024/03/01 11:26:26;;;;;;;;;1.50;1.50;;;;;11.05;75.02;99511.00;5070704;28;45622;-69
2024/03/01 11:29:03;;;;;;;;;3.25;2.25;;;;;11.07;75.10;99516.16;5088903;27;45607;-68
2024/03/01 11:31:30;;;;;;;;;2.00;2.00;;;;;11.08;75.05;99510.00;5083010;27;48319;-69
2024/03/01 11:33:58;;;;;;;;;4.00;3.50;;;;;11.04;75.11;99498.81;5077531;28;46610;-64
2024/03/01 11:36:23;;;;;;;;;3.75;3.00;;;;;11.09;74.69;99493.38;5088439;27;45165;-63
2024/03/01 11:39:06;;;;;;;;;6.00;4.00;;;;;11.10;75.08;99500.28;5079714;27;45330;-61
2024/03/01 11:41:42;;;;;;;;;3.00;2.00;;;;;11.21;74.58;99488.38;5063251;28;46092;-67
2024/03/01 11:44:29;;;;;;;;;7.25;4.00;;;;;11.37;74.69;99483.22;5069382;28;45489;-59
2024/03/01 11:47:18;;;;;;;;;2.00;2.00;;;;;11.55;74.38;99472.72;5067536;27;45937;-59